Latest Coastal Weather Observations for Lombadina

IDW60701

Issued at 3:52 pm WST Friday 30 January 2015 (issued every 10 minutes, with the page automatically refreshed every 10 minutes)

About coastal observations | Map of coastal stations | Coastal observations for WA | Marine services | Other Formats
Station Details ID: 503016 Name: LOMBADINA AIRSTRIP Lat: -16.52 Lon: 122.92 Height: 42.0 m
Data from the previous 72 hours. | See also: Recent months for locations in Western Australia
Date/Time
WST
Temp

°C
Wind Pressure Rain
since 9am
mm
Weather Cloud Vis
km
Sea
Height
m
Swell
Dir
 
Speed
knots
Gust
knots
hPa Trend Height
m
Period
s
Dir
30/03:30pm 28.3 NW 4 7 1006.3 - 0.0 - - 10 - - - -
30/03:00pm 28.8 NW 4 7 1006.4 - 0.0 - - 10 - - - -
30/02:30pm 28.5 NNW 6 9 1006.2 - 0.0 - - 10 - - - -
30/02:00pm 28.4 NNW 6 10 1006.9 - 0.0 - - 10 - - - -
30/01:30pm 28.9 NW 6 10 1007.2 - 0.0 - - 10 - - - -
30/01:00pm 29.4 NW 3 8 1007.6 - 0.0 - - 10 - - - -
30/12:30pm 28.3 NE 1 3 1007.9 - 0.0 - - 10 - - - -
30/12:00pm 26.3 NNW 4 6 1008.6 - 0.0 - Cloudy 10 - - - -
30/11:30am 26.3 CALM 0 3 1009.0 - 0.0 - - 10 - - - -
30/11:00am 26.0 E 6 10 1009.5 - 0.0 - Partly cloudy 10 - - - -
30/10:30am 25.9 E 7 13 1009.4 - 0.0 - Partly cloudy 10 - - - -
30/10:00am 25.4 E 8 17 1010.1 - 0.0 - Partly cloudy 10 - - - -
30/09:48am 25.9 E 8 13 1009.9 - 0.0 - Partly cloudy 10 - - - -
30/09:34am 26.0 E 7 14 1010.1 - 0.0 - Partly cloudy 10 - - - -
30/09:30am 25.9 E 7 12 1010.2 - 0.0 - - 10 - - - -
30/09:00am 28.1 SSE 5 10 1009.8 - 0.0 - Cloudy 10 - - - -
30/08:30am 27.7 S 3 6 1009.4 - 0.0 - Partly cloudy 10 - - - -
30/08:00am 27.4 S 3 6 1009.1 - 0.0 - Partly cloudy 10 - - - -
30/07:30am 27.9 S 1 4 1008.5 - 0.0 - Partly cloudy 10 - - - -
30/07:00am 27.8 SSW 2 5 1008.3 - 0.0 - Partly cloudy 10 - - - -
30/06:30am 27.8 SW 3 6 1007.9 - 0.0 - - 10 - - - -
30/06:00am 27.8 WSW 3 8 1007.3 - 0.0 - Cloudy 10 - - - -
30/05:30am 27.7 W 4 8 1006.7 - 0.0 - Partly cloudy 10 - - - -
30/05:00am 27.8 W 4 9 1006.7 - 0.0 - Partly cloudy 10 - - - -
30/04:30am 27.7 W 3 6 1006.5 - 0.0 - Partly cloudy 10 - - - -
30/04:00am 27.8 W 3 8 1006.7 - 0.0 - Partly cloudy 10 - - - -
30/03:30am 27.7 W 3 6 1006.6 - 0.0 - Partly cloudy 10 - - - -
30/03:00am 27.6 W 2 6 1006.3 - 0.0 - Mostly clear 10 - - - -
30/02:30am 27.5 W 3 7 1005.9 - 0.0 - Partly cloudy 10 - - - -
30/02:00am 27.5 W 3 9 1006.0 - 0.0 - Partly cloudy 10 - - - -
30/01:30am 27.4 W 2 6 1006.5 - 0.0 - Partly cloudy 10 - - - -
30/01:00am 26.7 W 2 5 1006.8 - 0.0 - Partly cloudy 10 - - - -
30/12:30am 25.9 CALM 0 2 1007.2 - 0.0 - Partly cloudy 10 - - - -
30/12:00am 26.8 CALM 0 2 1007.4 - 0.0 - - 10 - - - -
 
Date/Time
WST
Temp

°C
Wind Pressure Rain
since 9am
mm
Weather Cloud Vis
km
Sea
Height
m
Swell
Dir
 
Speed
knots
Gust
knots
hPa Trend Height
m
Period
s
Dir
29/11:30pm 26.5 WSW 1 2 1007.3 - 0.0 - Partly cloudy 10 - - - -
29/11:00pm 26.7 WSW 1 3 1007.5 - 0.0 - - 10 - - - -
29/10:30pm 27.0 CALM 0 2 1007.4 - 0.0 - - 10 - - - -
29/10:00pm 27.0 W 1 3 1007.3 - 0.0 - - 10 - - - -
29/09:30pm 26.7 CALM 0 2 1007.5 - 0.0 - - 10 - - - -
29/09:00pm 27.2 CALM 0 2 1007.4 - 0.0 - - 10 - - - -
29/08:30pm 27.7 WSW 1 5 1007.1 - 0.0 - - 10 - - - -
29/08:00pm 27.8 WSW 3 7 1006.4 - 0.0 - - 10 - - - -
29/07:30pm 28.0 WSW 1 5 1006.3 - 0.0 - - 10 - - - -
29/07:00pm 28.3 WSW 3 7 1006.1 - 0.0 - - 10 - - - -
29/06:30pm 28.5 WSW 4 9 1005.7 - 0.0 - - 10 - - - -
29/06:00pm 29.3 WSW 4 9 1005.4 - 0.0 - Mostly clear 10 - - - -
29/05:30pm 29.8 W 5 11 1005.2 - 0.0 - - 10 - - - -
29/05:00pm 30.3 W 6 11 1004.6 - 0.0 - - 10 - - - -
29/04:30pm 29.8 W 5 11 1004.6 - 0.0 - - 10 - - - -
29/04:00pm 29.8 W 6 11 1004.5 - 0.0 - - 10 - - - -
29/03:30pm 30.8 W 6 11 1004.4 - 0.0 - - 10 - - - -
29/03:00pm 31.7 W 5 10 1004.5 - 0.0 - - 10 - - - -
29/02:30pm 31.7 WNW 4 10 1004.7 - 0.0 - - 10 - - - -
29/02:00pm 30.8 NW 6 11 1005.0 - 0.0 - - 10 - - - -
29/01:30pm 31.2 NW 5 10 1005.0 - 0.0 - - 10 - - - -
29/01:00pm 30.8 NW 6 10 1005.2 - 0.0 - - 10 - - - -
29/12:30pm 30.4 NW 4 7 1005.4 - 0.0 - - 10 - - - -
29/12:00pm 29.7 NW 2 5 1005.7 - 0.0 - - 10 - - - -
29/11:30am 29.3 WNW 1 4 1006.0 - 0.0 - - 10 - - - -
29/11:00am 29.2 WNW 1 5 1006.6 - 0.0 - - 10 - - - -
29/10:30am 29.0 N 1 4 1007.0 - 0.0 - - 10 - - - -
29/10:00am 28.9 NNE 1 5 1007.3 - 0.0 - - 10 - - - -
29/09:30am 28.5 N 1 3 1007.7 - 0.0 - - 10 - - - -
29/09:00am 27.7 ESE 3 6 1007.7 - 9.4 - - 10 - - - -
29/08:30am 27.1 SSE 4 7 1008.0 - 9.4 - - 10 - - - -
29/08:00am 26.9 SSE 5 10 1008.0 - 9.4 - - 10 - - - -
29/07:30am 26.8 S 3 5 1007.7 - 9.4 - Partly cloudy 10 - - - -
29/07:00am 25.9 ESE 6 10 1007.5 - 9.4 - Partly cloudy 10 - - - -
29/06:30am 25.5 SE 6 13 1007.7 - 9.4 - Partly cloudy 10 - - - -
29/06:00am 24.9 S 7 12 1007.6 - 9.4 - Partly cloudy 10 - - - -
29/05:30am 26.3 SSE 4 7 1007.0 - 9.4 - Partly cloudy 10 - - - -
29/05:00am 26.2 SSE 2 5 1006.7 - 9.4 - - 10 - - - -
29/04:30am 26.3 S 3 6 1006.2 - 9.4 - Partly cloudy 10 - - - -
29/04:00am 26.4 SSE 3 6 1005.8 - 9.4 - Partly cloudy 10 - - - -
29/03:30am 26.4 SE 1 4 1005.3 - 9.4 - Partly cloudy 10 - - - -
29/03:00am 26.3 ESE 2 4 1005.4 - 9.4 - Cloudy 10 - - - -
29/02:30am 26.6 CALM 0 3 1005.3 - 9.4 - Partly cloudy 10 - - - -
29/02:00am 27.2 WSW 2 5 1004.9 - 9.4 - - 10 - - - -
29/01:30am 27.6 WSW 3 5 1005.1 - 9.4 - - 10 - - - -
29/01:00am 27.8 WSW 2 5 1005.6 - 9.4 - - 10 - - - -
29/12:30am 27.9 WSW 4 7 1005.6 - 9.4 - - 10 - - - -
29/12:00am 27.9 WSW 4 9 1005.8 - 9.4 - Mostly clear 10 - - - -
 
Date/Time
WST
Temp

°C
Wind Pressure Rain
since 9am
mm
Weather Cloud Vis
km
Sea
Height
m
Swell
Dir
 
Speed
knots
Gust
knots
hPa Trend Height
m
Period
s
Dir
28/11:30pm 28.0 WSW 4 9 1005.9 - 9.4 - Partly cloudy 10 - - - -
28/11:00pm 27.9 WSW 4 8 1006.0 - 9.4 - - 10 - - - -
28/10:30pm 27.8 W 3 6 1006.2 - 9.4 - - 10 - - - -
28/10:00pm 27.9 WSW 2 4 1006.4 - 9.4 - - 10 - - - -
28/09:30pm 28.2 WSW 3 7 1006.3 - 9.4 - - 10 - - - -
28/09:00pm 28.2 WSW 4 7 1006.1 - 9.4 - - 10 - - - -
28/08:30pm 28.3 WSW 3 7 1005.7 - 9.4 - - 10 - - - -
28/08:00pm 28.4 WSW 4 7 1005.6 - 9.4 - - 10 - - - -
28/07:30pm 28.7 WSW 4 8 1005.1 - 9.4 - Partly cloudy 10 - - - -
28/07:00pm 28.7 WSW 5 11 1004.7 - 9.4 - Partly cloudy 10 - - - -
28/06:30pm 29.0 W 6 10 1004.3 - 9.4 - Partly cloudy 10 - - - -
28/06:00pm 29.3 W 5 11 1004.1 - 9.4 - - 10 - - - -
28/05:30pm 29.6 W 6 13 1004.0 - 9.4 - Partly cloudy 10 - - - -
28/05:00pm 30.1 WSW 7 13 1003.9 - 9.4 - Partly cloudy 10 - - - -
28/04:30pm 30.8 WSW 5 11 1003.7 - 9.4 - Partly cloudy 10 - - - -
28/04:00pm 30.9 W 6 12 1004.0 - 9.4 - - 10 - - - -
28/03:30pm 30.9 W 7 15 1003.7 - 9.4 - Partly cloudy 10 - - - -
28/03:00pm 31.1 WSW 6 11 1003.9 - 9.4 - Mostly clear 10 - - - -
28/02:30pm 29.1 W 5 9 1003.9 - 9.4 - Partly cloudy 10 - - - -
28/02:00pm 29.1 W 3 10 1004.5 - 9.4 - Partly cloudy 10 - - - -
28/01:30pm 27.2 SE 2 5 1004.9 - 9.0 - Partly cloudy 10 - - - -
28/01:16pm 26.7 SSE 2 4 1005.0 - 9.0 - Partly cloudy 4 - - - -
28/01:00pm 26.5 SW 3 6 1005.2 - 7.4 - Partly cloudy 2 - - - -
28/12:52pm 27.0 W 5 10 1005.4 - 4.6 - Partly cloudy 4 - - - -
28/12:30pm 29.9 WNW 5 9 1005.4 - 1.8 - Partly cloudy 10 - - - -
28/12:00pm 29.1 NNE 3 5 1005.7 - 1.8 Recent precip. Mostly cloudy 10 - - - -
28/11:30am 27.1 SSE 4 7 1006.4 - 1.4 - Partly cloudy 5 - - - -
28/11:00am 29.8 WNW 3 8 1006.5 - 0.0 - Partly cloudy 10 - - - -
28/10:30am 30.3 W 4 10 1006.8 - 0.0 - Partly cloudy 10 - - - -
28/10:00am 30.6 WSW 4 8 1007.0 - 0.0 - Partly cloudy 10 - - - -
28/09:30am 31.0 SW 2 9 1007.3 - 0.0 - Partly cloudy 10 - - - -
28/09:00am 29.8 WSW 2 5 1007.5 - 3.0 - Cloudy 10 - - - -
28/08:30am 29.8 S 2 4 1007.3 - 3.0 - Partly cloudy 10 - - - -
28/08:00am 29.9 SSW 2 6 1007.1 - 3.0 - Partly cloudy 10 - - - -
28/07:30am 28.9 SSW 3 5 1007.0 - 3.0 - - 10 - - - -
28/07:00am 27.9 SSW 1 3 1007.0 - 3.0 - - 10 - - - -
28/06:30am 26.4 CALM 0 3 1006.7 - 3.0 - - 10 - - - -
28/06:00am 24.8 CALM 0 0 1006.3 - 3.0 - - 10 - - - -
28/05:30am 24.8 CALM 0 0 1005.9 - 3.0 - - 10 - - - -
28/05:00am 24.7 CALM 0 0 1005.7 - 3.0 - - 10 - - - -
28/04:30am 24.6 CALM 0 0 1005.4 - 3.0 - - 10 - - - -
28/04:00am 24.6 CALM 0 0 1005.5 - 3.0 - - 10 - - - -
28/03:30am 24.7 CALM 0 0 1005.2 - 3.0 - - 10 - - - -
28/03:00am 24.9 CALM 0 0 1005.0 - 3.0 - - 10 - - - -
28/02:30am 24.7 CALM 0 0 1004.9 - 3.0 - - 10 - - - -
28/02:00am 24.5 CALM 0 0 1004.9 - 3.0 - - 10 - - - -
28/01:30am 24.8 CALM 0 0 1004.8 - 3.0 - - 10 - - - -
28/01:00am 24.7 CALM 0 0 1005.2 - 3.0 - - 10 - - - -
28/12:30am 24.8 CALM 0 0 1005.6 - 3.0 - - 10 - - - -
28/12:00am 24.9 CALM 0 0 1006.0 - 3.0 - - 10 - - - -
 
Date/Time
WST
Temp

°C
Wind Pressure Rain
since 9am
mm
Weather Cloud Vis
km
Sea
Height
m
Swell
Dir
 
Speed
knots
Gust
knots
hPa Trend Height
m
Period
s
Dir
27/11:30pm 25.3 CALM 0 0 1006.4 - 3.0 - - 10 - - - -
27/11:00pm 25.4 CALM 0 0 1006.6 - 3.0 - - 10 - - - -
27/10:30pm 25.6 CALM 0 0 1007.1 - 3.0 - - 10 - - - -
27/10:00pm 25.9 CALM 0 0 1006.9 - 3.0 - - 10 - - - -
27/09:30pm 25.7 CALM 0 2 1006.9 - 3.0 - - 10 - - - -
27/09:00pm 26.3 CALM 0 0 1006.8 - 3.0 - - 10 - - - -
27/08:30pm 26.6 CALM 0 2 1006.7 - 3.0 - - 10 - - - -
27/08:00pm 27.0 CALM 0 2 1006.8 - 3.0 - - 10 - - - -
27/07:30pm 27.2 CALM 0 2 1006.5 - 3.0 - - 10 - - - -
27/07:00pm 27.9 NE 2 4 1005.8 - 3.0 - - 10 - - - -
27/06:30pm 28.6 CALM 0 2 1005.8 - 3.0 - - 10 - - - -
27/06:00pm 29.3 SE 1 4 1005.4 - 3.0 - - 10 - - - -
27/05:30pm 29.7 SSE 2 5 1005.9 - 3.0 - - 10 - - - -
27/05:00pm 29.8 SSE 3 5 1006.0 - 3.0 - - 10 - - - -
27/04:30pm 29.7 S 3 7 1005.7 - 3.0 - - 10 - - - -
27/04:00pm 29.9 SE 1 4 1005.2 - 3.0 - - 10 - - - -

Other Formats:

Comma delimited format used in spreadsheet applications
http://www.bom.gov.au/fwo/IDW60701/IDW60701.99206.axf

JavaScript Object Notation format (JSON) in row-major order
http://www.bom.gov.au/fwo/IDW60701/IDW60701.99206.json